createdAt,value
2019-03-23T00:00:10.740Z,100.00
2019-03-23T00:02:39.477Z,100.00
2019-03-23T00:05:08.880Z,100.00
2019-03-23T00:07:37.695Z,100.00
2019-03-23T00:10:07.271Z,100.00
2019-03-23T00:12:35.972Z,100.00
2019-03-23T00:15:09.972Z,100.00
2019-03-23T00:17:38.761Z,100.00
2019-03-23T00:20:07.755Z,100.00
2019-03-23T00:22:36.852Z,100.00
2019-03-23T00:25:05.741Z,100.00
2019-03-23T00:27:34.528Z,100.00
2019-03-23T00:30:04.753Z,100.00
2019-03-23T00:32:33.542Z,100.00
2019-03-23T00:35:02.328Z,100.00
2019-03-23T00:37:31.114Z,100.00
2019-03-23T00:39:59.907Z,100.00
2019-03-23T00:42:28.689Z,100.00
2019-03-23T00:44:57.378Z,100.00
2019-03-23T00:47:26.176Z,100.00
2019-03-23T00:49:54.953Z,100.00
2019-03-23T00:52:23.639Z,100.00
2019-03-23T00:54:52.428Z,100.00
2019-03-23T00:57:21.010Z,100.00
2019-03-23T00:59:49.803Z,100.00
2019-03-23T01:02:18.587Z,100.00
2019-03-23T01:04:47.273Z,100.00
2019-03-23T01:07:18.393Z,100.00
2019-03-23T01:09:47.203Z,100.00
2019-03-23T01:12:15.991Z,100.00
2019-03-23T01:14:44.779Z,100.00
2019-03-23T01:17:13.466Z,100.00
2019-03-23T01:19:44.406Z,100.00
2019-03-23T01:22:12.988Z,100.00
2019-03-23T01:24:41.775Z,100.00
2019-03-23T01:27:10.493Z,100.00
2019-03-23T01:29:39.254Z,100.00
2019-03-23T01:32:07.831Z,100.00
2019-03-23T01:34:36.623Z,100.00
2019-03-23T01:37:05.306Z,100.00
2019-03-23T01:39:34.095Z,100.00
2019-03-23T01:42:03.702Z,100.00
2019-03-23T01:44:32.388Z,100.00
2019-03-23T01:47:01.175Z,100.00
2019-03-23T01:49:29.964Z,100.00
2019-03-23T01:51:58.752Z,100.00
2019-03-23T01:54:27.543Z,100.00
2019-03-23T01:56:56.130Z,100.00
2019-03-23T01:59:24.811Z,100.00
2019-03-23T02:01:53.495Z,100.00
2019-03-23T02:04:22.185Z,100.00
2019-03-23T02:06:50.969Z,100.00
2019-03-23T02:09:19.655Z,100.00
2019-03-23T02:11:48.340Z,100.00
2019-03-23T02:14:17.028Z,100.00
2019-03-23T02:16:46.122Z,100.00
2019-03-23T02:19:14.808Z,100.00
2019-03-23T02:21:43.393Z,100.00
2019-03-23T02:24:12.179Z,100.00
2019-03-23T02:26:40.864Z,100.00
2019-03-23T02:29:09.653Z,100.00
2019-03-23T02:31:38.238Z,100.00
2019-03-23T02:34:06.923Z,100.00
2019-03-23T02:36:35.609Z,100.00
2019-03-23T02:39:05.729Z,100.00
2019-03-23T02:41:34.422Z,100.00
2019-03-23T02:44:03.206Z,100.00
2019-03-23T02:46:31.784Z,100.00
2019-03-23T02:49:00.573Z,100.00
2019-03-23T02:51:29.157Z,100.00
2019-03-23T02:53:57.946Z,100.00
2019-03-23T02:56:26.530Z,100.00
2019-03-23T02:58:55.214Z,100.00
2019-03-23T03:01:23.898Z,100.00
2019-03-23T03:03:52.693Z,100.00
2019-03-23T03:06:21.373Z,100.00
2019-03-23T03:08:50.053Z,100.00
2019-03-23T03:11:18.952Z,100.00
2019-03-23T03:13:47.637Z,100.00
2019-03-23T03:16:16.321Z,100.00
2019-03-23T03:18:45.110Z,100.00
2019-03-23T03:21:13.795Z,100.00
2019-03-23T03:23:42.492Z,100.00
2019-03-23T03:26:11.061Z,100.00
2019-03-23T03:28:39.853Z,100.00
2019-03-23T03:31:08.650Z,100.00
2019-03-23T03:33:37.562Z,100.00
2019-03-23T03:36:06.321Z,100.00
2019-03-23T03:38:35.012Z,100.00
2019-03-23T03:41:03.693Z,100.00
2019-03-23T03:43:32.579Z,100.00
2019-03-23T03:46:01.165Z,100.00
2019-03-23T03:48:29.956Z,100.00
2019-03-23T03:50:58.536Z,100.00
2019-03-23T03:53:27.218Z,100.00
2019-03-23T03:55:55.805Z,100.00
2019-03-23T03:58:24.597Z,100.00
2019-03-23T04:00:53.175Z,100.00
2019-03-23T04:03:21.966Z,100.00
2019-03-23T04:05:50.551Z,100.00
2019-03-23T04:08:19.335Z,100.00
2019-03-23T04:10:47.920Z,100.00
2019-03-23T04:13:16.707Z,100.00
2019-03-23T04:15:45.391Z,100.00
2019-03-23T04:18:14.180Z,100.00
2019-03-23T04:20:42.763Z,100.00
2019-03-23T04:23:11.550Z,100.00
2019-03-23T04:25:40.268Z,100.00
2019-03-23T04:28:09.037Z,100.00
2019-03-23T04:30:37.611Z,100.00
2019-03-23T04:33:06.305Z,100.00
2019-03-23T04:35:34.975Z,100.00
2019-03-23T04:38:06.124Z,100.00
2019-03-23T04:40:34.707Z,100.00
2019-03-23T04:43:03.606Z,100.00
2019-03-23T04:45:32.282Z,100.00
2019-03-23T04:48:01.083Z,100.00
2019-03-23T04:50:29.855Z,100.00
2019-03-23T04:52:58.543Z,100.00
2019-03-23T04:55:27.230Z,100.00
2019-03-23T04:57:55.917Z,100.00
2019-03-23T05:00:24.603Z,100.00
2019-03-23T05:02:53.287Z,100.00
2019-03-23T05:05:21.977Z,100.00
2019-03-23T05:07:50.669Z,100.00
2019-03-23T05:10:19.347Z,100.00
2019-03-23T05:12:48.134Z,100.00
2019-03-23T05:15:16.718Z,100.00
2019-03-23T05:17:45.402Z,100.00
2019-03-23T05:20:28.273Z,100.00
2019-03-23T05:22:57.007Z,100.00
2019-03-23T05:25:29.789Z,100.00
2019-03-23T05:27:59.131Z,100.00
2019-03-23T05:30:27.877Z,100.00
2019-03-23T05:32:56.878Z,100.00
2019-03-23T05:35:25.658Z,100.00
2019-03-23T05:37:56.603Z,100.00
2019-03-23T05:40:25.392Z,100.00
2019-03-23T05:42:54.181Z,100.00
2019-03-23T05:45:22.965Z,100.00
2019-03-23T05:47:51.655Z,100.00
2019-03-23T05:50:20.442Z,100.00
2019-03-23T05:52:49.229Z,100.00
2019-03-23T05:55:18.018Z,100.00
2019-03-23T05:57:46.908Z,100.00
2019-03-23T06:00:17.438Z,100.00
2019-03-23T06:02:46.122Z,100.00
2019-03-23T06:05:14.909Z,100.00
2019-03-23T06:07:43.698Z,100.00
2019-03-23T06:10:12.486Z,100.00
2019-03-23T06:12:41.280Z,100.00
2019-03-23T06:15:10.412Z,100.00
2019-03-23T06:17:39.072Z,100.00
2019-03-23T06:20:08.867Z,100.00
2019-03-23T06:22:37.455Z,100.00
2019-03-23T06:25:09.006Z,100.00
2019-03-23T06:27:37.791Z,100.00
2019-03-23T06:30:09.343Z,100.00
2019-03-23T06:32:38.131Z,100.00
2019-03-23T06:35:08.054Z,100.00
2019-03-23T06:37:36.731Z,100.00
2019-03-23T06:40:07.977Z,100.00
2019-03-23T06:42:36.764Z,100.00
2019-03-23T06:45:08.419Z,100.00
2019-03-23T06:47:37.107Z,100.00
2019-03-23T06:50:07.942Z,100.00
2019-03-23T06:52:36.627Z,100.00
2019-03-23T06:55:07.056Z,100.00
2019-03-23T06:57:36.149Z,100.00
2019-03-23T07:00:07.968Z,100.00
2019-03-23T07:02:36.693Z,100.00
2019-03-23T07:05:08.660Z,100.00
2019-03-23T07:07:37.407Z,100.00
2019-03-23T07:10:10.737Z,100.00
2019-03-23T07:12:39.529Z,100.00
2019-03-23T07:15:19.499Z,100.00
2019-03-23T07:17:41.197Z,100.00
2019-03-23T07:20:12.138Z,100.00
2019-03-23T07:22:40.823Z,100.00
2019-03-23T07:25:11.248Z,100.00
2019-03-23T07:27:40.037Z,100.00
2019-03-23T07:30:33.789Z,100.00
2019-03-23T07:33:02.731Z,100.00
2019-03-23T07:35:31.488Z,100.00
2019-03-23T07:38:00.174Z,100.00
2019-03-23T07:40:28.964Z,100.00
2019-03-23T07:42:57.652Z,100.00
2019-03-23T07:45:26.497Z,100.00
2019-03-23T07:47:55.230Z,100.00
2019-03-23T07:50:24.012Z,100.00
2019-03-23T07:52:52.701Z,100.00
2019-03-23T07:55:21.264Z,100.00
2019-03-23T07:57:49.983Z,100.00
2019-03-23T08:00:20.395Z,100.00
2019-03-23T08:02:49.292Z,100.00
2019-03-23T08:05:18.387Z,100.00
2019-03-23T08:07:47.069Z,100.00
2019-03-23T08:10:27.323Z,100.00
2019-03-23T08:12:56.214Z,100.00
2019-03-23T08:15:24.899Z,100.00
2019-03-23T08:17:53.585Z,100.00
2019-03-23T08:20:22.271Z,100.00
2019-03-23T08:22:51.164Z,100.00
2019-03-23T08:25:19.849Z,100.00
2019-03-23T08:27:48.532Z,100.00
2019-03-23T08:30:17.730Z,100.00
2019-03-23T08:32:46.415Z,100.00
2019-03-23T08:35:15.204Z,100.00
2019-03-23T08:37:43.992Z,100.00
2019-03-23T08:40:12.575Z,100.00
2019-03-23T08:42:41.363Z,100.00
2019-03-23T08:45:10.191Z,100.00
2019-03-23T08:47:39.046Z,100.00
2019-03-23T08:50:07.730Z,100.00
2019-03-23T08:52:36.516Z,100.00
2019-03-23T08:55:05.920Z,100.00
2019-03-23T08:57:34.865Z,100.00
2019-03-23T09:00:04.826Z,100.00
2019-03-23T09:02:33.617Z,100.00
2019-03-23T09:05:02.303Z,100.00
2019-03-23T09:07:31.088Z,100.00
2019-03-23T09:09:59.698Z,100.00
2019-03-23T09:12:28.460Z,100.00
2019-03-23T09:14:57.145Z,100.00
2019-03-23T09:17:25.850Z,100.00
2019-03-23T09:19:54.496Z,100.00
2019-03-23T09:22:23.204Z,100.00
2019-03-23T09:24:51.992Z,100.00
2019-03-23T09:27:20.779Z,100.00
2019-03-23T09:29:49.465Z,100.00
2019-03-23T09:32:18.151Z,100.00
2019-03-23T09:34:46.835Z,100.00
2019-03-23T09:37:15.624Z,100.00
2019-03-23T09:39:44.309Z,100.00
2019-03-23T09:42:12.994Z,100.00
2019-03-23T09:44:41.684Z,100.00
2019-03-23T09:47:10.469Z,100.00
2019-03-23T09:49:39.058Z,100.00
2019-03-23T09:52:07.841Z,100.00
2019-03-23T09:54:36.559Z,100.00
2019-03-23T09:57:05.520Z,100.00
2019-03-23T09:59:34.205Z,100.00
2019-03-23T10:02:02.992Z,100.00
2019-03-23T10:04:31.781Z,100.00
2019-03-23T10:07:00.570Z,100.00
2019-03-23T10:09:29.257Z,100.00
2019-03-23T10:11:59.266Z,99.34
2019-03-23T10:14:28.067Z,97.42
2019-03-23T10:16:56.745Z,94.96
2019-03-23T10:19:25.329Z,94.51
2019-03-23T10:21:54.117Z,94.03
2019-03-23T10:24:22.802Z,92.51
2019-03-23T10:26:52.300Z,92.09
2019-03-23T10:29:21.199Z,90.65
2019-03-23T10:31:49.986Z,88.77
2019-03-23T10:34:18.569Z,87.33
2019-03-23T10:36:47.360Z,88.29
2019-03-23T10:39:16.019Z,87.55
2019-03-23T10:41:44.629Z,84.86
2019-03-23T10:44:13.416Z,79.67
2019-03-23T10:46:42.203Z,79.89
2019-03-23T10:49:10.786Z,78.12
2019-03-23T10:51:39.575Z,79.14
2019-03-23T10:54:08.260Z,80.36
2019-03-23T10:56:37.049Z,78.92
2019-03-23T10:59:05.640Z,77.60
2019-03-23T11:01:34.419Z,78.23
2019-03-23T11:04:03.007Z,77.15
2019-03-23T11:06:31.689Z,75.91
2019-03-23T11:09:00.374Z,74.50
2019-03-23T11:11:29.162Z,74.95
2019-03-23T11:13:57.849Z,74.57
2019-03-23T11:16:26.571Z,73.15
2019-03-23T11:18:55.200Z,70.22
2019-03-23T11:21:23.904Z,68.49
2019-03-23T11:23:52.626Z,66.29
2019-03-23T11:26:21.481Z,65.61
2019-03-23T11:28:50.295Z,61.29
2019-03-23T11:31:20.287Z,60.55
2019-03-23T11:33:48.843Z,59.42
2019-03-23T11:36:17.555Z,57.69
2019-03-23T11:38:46.140Z,57.54
2019-03-23T11:41:14.750Z,55.29
2019-03-23T11:43:43.386Z,51.94
2019-03-23T11:46:12.196Z,50.13
2019-03-23T11:48:41.907Z,52.50
2019-03-23T11:51:10.695Z,52.22
2019-03-23T11:53:39.401Z,54.76
2019-03-23T11:56:08.167Z,57.29
2019-03-23T11:58:36.852Z,56.85
2019-03-23T12:01:05.642Z,56.43
2019-03-23T12:03:34.327Z,56.29
2019-03-23T12:06:03.121Z,54.35
2019-03-23T12:08:31.803Z,54.48
2019-03-23T12:11:03.155Z,54.53
2019-03-23T12:13:30.913Z,56.17
2019-03-23T12:15:59.805Z,56.27
2019-03-23T12:18:28.468Z,55.96
2019-03-23T12:20:57.279Z,58.35
2019-03-23T12:23:26.068Z,62.21
2019-03-23T12:25:54.853Z,59.94
2019-03-23T12:28:23.546Z,67.49
2019-03-23T12:30:52.328Z,69.51
2019-03-23T12:33:21.551Z,71.25
2019-03-23T12:35:50.518Z,72.75
2019-03-23T12:38:19.182Z,65.31
2019-03-23T12:40:47.890Z,67.49
2019-03-23T12:43:16.682Z,64.61
2019-03-23T12:45:45.568Z,62.85
2019-03-23T12:48:14.357Z,59.71
2019-03-23T12:50:43.051Z,61.88
2019-03-23T12:53:11.730Z,58.37
2019-03-23T12:55:42.261Z,57.55
2019-03-23T12:58:12.800Z,58.57
2019-03-23T13:00:41.577Z,56.22
2019-03-23T13:03:10.261Z,52.83
2019-03-23T13:05:39.150Z,53.48
2019-03-23T13:08:07.835Z,51.92
2019-03-23T13:10:40.200Z,50.82
2019-03-23T13:13:08.894Z,50.46
2019-03-23T13:15:37.582Z,52.48
2019-03-23T13:18:06.368Z,52.05
2019-03-23T13:23:03.728Z,52.52
2019-03-23T13:25:32.322Z,49.25
2019-03-23T13:28:01.114Z,46.87
2019-03-23T13:30:29.695Z,46.74
2019-03-23T13:32:58.482Z,49.29
2019-03-23T13:35:27.170Z,46.28
2019-03-23T13:37:55.830Z,46.09
2019-03-23T13:40:24.438Z,47.56
2019-03-23T13:42:53.327Z,46.38
2019-03-23T13:45:22.117Z,48.20
2019-03-23T13:47:50.905Z,47.35
2019-03-23T13:50:29.721Z,46.92
2019-03-23T13:52:58.473Z,47.90
2019-03-23T13:55:33.346Z,50.06
2019-03-23T13:58:14.530Z,47.47
2019-03-23T14:00:43.415Z,49.78
2019-03-23T14:03:12.511Z,48.66
2019-03-23T14:05:41.197Z,47.60
2019-03-23T14:08:09.779Z,47.33
2019-03-23T14:10:38.569Z,49.75
2019-03-23T14:13:07.150Z,50.69
2019-03-23T14:15:35.939Z,59.89
2019-03-23T14:18:05.141Z,66.29
2019-03-23T14:20:33.937Z,65.54
2019-03-23T14:23:03.229Z,69.75
2019-03-23T14:25:32.019Z,69.64
2019-03-23T14:28:00.704Z,72.60
2019-03-23T14:30:29.522Z,75.21
2019-03-23T14:32:58.077Z,75.83
2019-03-23T14:35:26.961Z,76.87
2019-03-23T14:37:55.550Z,76.10
2019-03-23T14:40:24.341Z,76.33
2019-03-23T14:42:52.920Z,77.06
2019-03-23T14:45:21.706Z,77.01
2019-03-23T14:47:50.393Z,75.30
2019-03-23T14:50:19.181Z,75.52
2019-03-23T14:52:47.878Z,76.37
2019-03-23T14:55:16.663Z,76.95
2019-03-23T14:57:45.344Z,79.80
2019-03-23T15:00:15.974Z,79.64
2019-03-23T15:02:44.557Z,78.11
2019-03-23T15:05:13.242Z,78.64
2019-03-23T15:07:42.338Z,80.08
2019-03-23T15:10:11.462Z,79.03
2019-03-23T15:12:40.120Z,79.58
2019-03-23T15:15:09.213Z,79.35
2019-03-23T15:17:37.771Z,79.79
2019-03-23T15:20:06.991Z,81.55
2019-03-23T15:22:35.779Z,82.31
2019-03-23T15:25:05.801Z,81.50
2019-03-23T15:27:34.382Z,82.38
2019-03-23T15:30:04.713Z,81.71
2019-03-23T15:32:33.366Z,82.63
2019-03-23T15:35:02.182Z,83.27
2019-03-23T15:37:30.866Z,82.99
2019-03-23T15:39:59.655Z,83.41
2019-03-23T15:42:29.465Z,82.58
2019-03-23T15:44:59.994Z,83.71
2019-03-23T15:47:30.419Z,83.32
2019-03-23T15:50:00.296Z,83.85
2019-03-23T15:52:28.917Z,84.13
2019-03-23T15:54:57.603Z,84.37
2019-03-23T15:57:26.291Z,85.97
2019-03-23T15:59:54.976Z,86.38
2019-03-23T16:02:23.660Z,86.75
2019-03-23T16:04:52.450Z,88.09
2019-03-23T16:07:29.274Z,87.64
2019-03-23T16:09:51.969Z,87.36
2019-03-23T16:12:20.554Z,88.56
2019-03-23T16:14:49.341Z,89.68
2019-03-23T16:17:18.026Z,88.14
2019-03-23T16:19:46.713Z,89.41
2019-03-23T16:22:15.501Z,91.10
2019-03-23T16:24:44.187Z,90.07
2019-03-23T16:27:12.872Z,92.35
2019-03-23T16:29:41.662Z,91.92
2019-03-23T16:32:10.345Z,91.44
2019-03-23T16:34:39.108Z,92.53
2019-03-23T16:37:07.820Z,92.94
2019-03-23T16:39:36.493Z,94.20
2019-03-23T16:42:05.191Z,94.16
2019-03-23T16:44:33.880Z,95.61
2019-03-23T16:47:02.670Z,97.55
2019-03-23T16:49:31.354Z,97.24
2019-03-23T16:52:00.141Z,98.60
2019-03-23T16:54:28.825Z,98.95
2019-03-23T16:56:57.617Z,99.24
2019-03-23T16:59:26.310Z,99.65
2019-03-23T17:01:55.086Z,99.45
2019-03-23T17:04:23.752Z,99.38
2019-03-23T17:06:52.330Z,99.02
2019-03-23T17:09:20.939Z,100.00
2019-03-23T17:11:49.625Z,99.73
2019-03-23T17:14:18.311Z,100.00
2019-03-23T17:16:47.102Z,100.00
2019-03-23T17:19:15.683Z,100.00
2019-03-23T17:21:44.472Z,100.00
2019-03-23T17:24:13.063Z,100.00
2019-03-23T17:26:41.842Z,100.00
2019-03-23T17:29:10.737Z,100.00
2019-03-23T17:31:39.521Z,100.00
2019-03-23T17:34:08.309Z,100.00
2019-03-23T17:36:37.201Z,100.00
2019-03-23T17:39:09.229Z,100.00
2019-03-23T17:41:37.850Z,100.00
2019-03-23T17:44:06.535Z,100.00
2019-03-23T17:46:37.186Z,100.00
2019-03-23T17:49:06.158Z,100.00
2019-03-23T17:51:35.049Z,100.00
2019-03-23T17:54:03.631Z,100.00
2019-03-23T17:56:32.351Z,100.00
2019-03-23T17:59:00.986Z,100.00
2019-03-23T18:01:29.688Z,100.00
2019-03-23T18:03:58.272Z,100.00
2019-03-23T18:06:27.266Z,100.00
2019-03-23T18:08:55.847Z,100.00
2019-03-23T18:11:24.638Z,100.00
2019-03-23T18:13:53.322Z,100.00
2019-03-23T18:16:22.112Z,100.00
2019-03-23T18:18:50.938Z,100.00
2019-03-23T18:21:19.586Z,100.00
2019-03-23T18:23:48.221Z,100.00
2019-03-23T18:26:16.959Z,100.00
2019-03-23T18:28:45.540Z,100.00
2019-03-23T18:31:16.196Z,100.00
2019-03-23T18:33:44.856Z,100.00
2019-03-23T18:36:13.655Z,100.00
2019-03-23T18:38:42.433Z,100.00
2019-03-23T18:41:14.092Z,100.00
2019-03-23T18:43:42.782Z,100.00
2019-03-23T18:46:11.561Z,100.00
2019-03-23T18:48:40.260Z,100.00
2019-03-23T18:51:09.035Z,100.00
2019-03-23T18:53:37.721Z,100.00
2019-03-23T18:56:06.409Z,100.00
2019-03-23T18:58:35.094Z,100.00
2019-03-23T19:01:03.893Z,100.00
2019-03-23T19:03:35.565Z,100.00
2019-03-23T19:06:05.866Z,100.00
2019-03-23T19:08:34.651Z,100.00
2019-03-23T19:11:03.767Z,100.00
2019-03-23T19:13:37.755Z,100.00
2019-03-23T19:16:02.858Z,100.00
2019-03-23T19:18:31.542Z,100.00
2019-03-23T19:21:00.228Z,100.00
2019-03-23T19:23:30.043Z,100.00
2019-03-23T19:25:58.728Z,100.00
2019-03-23T19:28:27.412Z,100.00
2019-03-23T19:30:56.114Z,100.00
2019-03-23T19:33:24.783Z,100.00
2019-03-23T19:35:53.748Z,100.00
2019-03-23T19:38:22.565Z,100.00
2019-03-23T19:40:51.659Z,100.00
2019-03-23T19:43:20.756Z,100.00
2019-03-23T19:45:49.442Z,100.00
2019-03-23T19:48:18.639Z,100.00
2019-03-23T19:50:47.429Z,100.00
2019-03-23T19:53:16.625Z,100.00
2019-03-23T19:55:45.513Z,100.00
2019-03-23T19:58:14.200Z,100.00
2019-03-23T20:00:42.784Z,100.00
2019-03-23T20:03:11.590Z,100.00
2019-03-23T20:05:40.258Z,100.00
2019-03-23T20:08:09.048Z,100.00
2019-03-23T20:10:37.721Z,100.00
2019-03-23T20:13:06.421Z,100.00
2019-03-23T20:15:35.205Z,100.00
2019-03-23T20:18:05.634Z,100.00
2019-03-23T20:20:34.941Z,100.00
2019-03-23T20:23:03.825Z,100.00
2019-03-23T20:25:32.510Z,100.00
2019-03-23T20:28:01.501Z,100.00
2019-03-23T20:30:30.288Z,100.00
2019-03-23T20:33:01.608Z,100.00
2019-03-23T20:35:30.527Z,100.00
2019-03-23T20:37:59.215Z,100.00
2019-03-23T20:40:29.539Z,100.00
2019-03-23T20:42:59.271Z,100.00
2019-03-23T20:45:30.613Z,100.00
2019-03-23T20:47:59.701Z,100.00
2019-03-23T20:50:28.377Z,100.00
2019-03-23T20:52:57.477Z,100.00
2019-03-23T20:55:28.628Z,100.00
2019-03-23T20:57:57.608Z,100.00
2019-03-23T21:00:26.399Z,100.00
2019-03-23T21:02:55.288Z,100.00
2019-03-23T21:05:33.112Z,100.00
2019-03-23T21:07:55.125Z,100.00
2019-03-23T21:10:23.799Z,100.00
2019-03-23T21:12:52.487Z,100.00
2019-03-23T21:15:21.275Z,100.00
2019-03-23T21:17:51.318Z,100.00
2019-03-23T21:20:20.386Z,100.00
2019-03-23T21:22:49.075Z,100.00
2019-03-23T21:25:17.654Z,100.00
2019-03-23T21:27:46.610Z,100.00
2019-03-23T21:30:18.304Z,100.00
2019-03-23T21:32:46.999Z,100.00
2019-03-23T21:35:16.074Z,100.00
2019-03-23T21:37:44.891Z,100.00
2019-03-23T21:40:13.976Z,100.00
2019-03-23T21:42:42.759Z,100.00
2019-03-23T21:45:13.615Z,100.00
2019-03-23T21:47:42.489Z,100.00
2019-03-23T21:50:11.682Z,100.00
2019-03-23T21:52:40.468Z,100.00
2019-03-23T21:55:10.790Z,100.00
2019-03-23T21:57:39.369Z,100.00
2019-03-23T22:00:09.192Z,100.00
2019-03-23T22:02:37.978Z,100.00
2019-03-23T22:05:07.780Z,100.00
2019-03-23T22:07:36.884Z,100.00
2019-03-23T22:10:08.747Z,100.00
2019-03-23T22:12:37.532Z,100.00
2019-03-23T22:15:08.784Z,100.00
2019-03-23T22:17:37.568Z,100.00
2019-03-23T22:20:07.796Z,100.00
2019-03-23T22:22:36.575Z,100.00
2019-03-23T22:25:06.798Z,100.00
2019-03-23T22:27:38.149Z,100.00
2019-03-23T22:30:09.904Z,100.00
2019-03-23T22:32:38.692Z,100.00
2019-03-23T22:35:07.914Z,100.00
2019-03-23T22:37:36.678Z,100.00
2019-03-23T22:40:08.435Z,100.00
2019-03-23T22:42:37.224Z,100.00
2019-03-23T22:45:07.958Z,100.00
2019-03-23T22:47:36.950Z,100.00
2019-03-23T22:50:07.352Z,100.00
2019-03-23T22:52:36.181Z,100.00
2019-03-23T22:55:07.615Z,100.00
2019-03-23T22:57:36.917Z,100.00
2019-03-23T23:00:20.964Z,100.00
2019-03-23T23:02:49.749Z,100.00
2019-03-23T23:05:18.559Z,100.00
2019-03-23T23:07:47.329Z,100.00
2019-03-23T23:10:15.987Z,100.00
2019-03-23T23:12:44.801Z,100.00
2019-03-23T23:15:13.794Z,100.00
2019-03-23T23:17:42.584Z,100.00
2019-03-23T23:20:11.908Z,100.00
2019-03-23T23:22:40.567Z,100.00
2019-03-23T23:25:09.870Z,100.00
2019-03-23T23:27:38.554Z,100.00
2019-03-23T23:30:09.230Z,100.00
2019-03-23T23:32:37.881Z,100.00
2019-03-23T23:35:10.535Z,100.00
2019-03-23T23:37:39.339Z,100.00
2019-03-23T23:40:08.334Z,100.00
2019-03-23T23:42:37.118Z,100.00
2019-03-23T23:45:15.379Z,100.00
2019-03-23T23:47:38.120Z,100.00
2019-03-23T23:50:07.276Z,100.00
2019-03-23T23:52:36.061Z,100.00
2019-03-23T23:55:06.190Z,100.00
2019-03-23T23:57:34.969Z,100.00
